createdAt,value
2022-10-23T00:01:51.018Z,100.00
2022-10-23T00:04:21.602Z,100.00
2022-10-23T00:06:51.435Z,100.00
2022-10-23T00:09:24.637Z,100.00
2022-10-23T00:11:56.909Z,100.00
2022-10-23T00:14:29.138Z,100.00
2022-10-23T00:16:59.563Z,100.00
2022-10-23T00:19:27.660Z,100.00
2022-10-23T00:21:55.637Z,100.00
2022-10-23T00:24:23.724Z,100.00
2022-10-23T00:26:51.862Z,100.00
2022-10-23T00:29:19.786Z,100.00
2022-10-23T00:31:49.791Z,100.00
2022-10-23T00:34:17.837Z,100.00
2022-10-23T00:36:48.463Z,100.00
2022-10-23T00:39:16.154Z,100.00
2022-10-23T00:41:44.123Z,100.00
2022-10-23T00:44:50.485Z,100.00
2022-10-23T00:47:20.079Z,100.00
2022-10-23T00:49:48.089Z,100.00
2022-10-23T00:52:17.125Z,100.00
2022-10-23T00:54:45.658Z,100.00
2022-10-23T00:57:16.091Z,100.00
2022-10-23T00:59:44.268Z,100.00
2022-10-23T01:02:14.285Z,100.00
2022-10-23T01:04:53.516Z,100.00
2022-10-23T01:07:30.144Z,100.00
2022-10-23T01:10:05.953Z,100.00
2022-10-23T01:12:39.710Z,100.00
2022-10-23T01:15:18.455Z,100.00
2022-10-23T01:17:54.874Z,100.00
2022-10-23T01:20:39.965Z,100.00
2022-10-23T01:23:37.893Z,100.00
2022-10-23T01:26:36.592Z,100.00
2022-10-23T01:29:11.725Z,100.00
2022-10-23T01:31:46.216Z,100.00
2022-10-23T01:34:17.387Z,100.00
2022-10-23T01:36:51.540Z,100.00
2022-10-23T01:39:23.894Z,100.00
2022-10-23T01:42:00.959Z,100.00
2022-10-23T01:44:35.650Z,100.00
2022-10-23T01:47:07.823Z,100.00
2022-10-23T01:49:40.157Z,100.00
2022-10-23T01:52:19.641Z,100.00
2022-10-23T01:54:50.926Z,100.00
2022-10-23T02:00:18.922Z,100.00
2022-10-23T02:02:50.004Z,100.00
2022-10-23T02:05:23.002Z,100.00
2022-10-23T02:07:51.610Z,100.00
2022-10-23T02:10:20.661Z,100.00
2022-10-23T02:12:56.852Z,100.00
2022-10-23T02:15:38.158Z,100.00
2022-10-23T02:18:14.517Z,100.00
2022-10-23T02:20:55.520Z,100.00
2022-10-23T02:23:34.916Z,100.00
2022-10-23T02:26:12.651Z,100.00
2022-10-23T02:28:48.142Z,100.00
2022-10-23T02:31:21.313Z,100.00
2022-10-23T02:33:49.842Z,100.00
2022-10-23T02:36:22.692Z,100.00
2022-10-23T02:38:53.133Z,100.00
2022-10-23T02:41:37.332Z,100.00
2022-10-23T02:44:19.886Z,100.00
2022-10-23T02:46:54.591Z,100.00
2022-10-23T02:49:37.217Z,100.00
2022-10-23T02:52:28.914Z,100.00
2022-10-23T02:55:58.082Z,100.00
2022-10-23T02:58:41.864Z,100.00
2022-10-23T03:01:27.276Z,100.00
2022-10-23T03:04:13.131Z,100.00
2022-10-23T03:06:41.690Z,100.00
2022-10-23T03:09:30.743Z,100.00
2022-10-23T03:12:01.105Z,100.00
2022-10-23T03:14:29.488Z,100.00
2022-10-23T03:17:02.563Z,100.00
2022-10-23T03:19:34.330Z,100.00
2022-10-23T03:22:04.942Z,100.00
2022-10-23T03:24:32.799Z,100.00
2022-10-23T03:27:00.590Z,100.00
2022-10-23T03:29:28.523Z,100.00
2022-10-23T03:31:59.801Z,100.00
2022-10-23T03:34:28.027Z,100.00
2022-10-23T03:36:57.304Z,100.00
2022-10-23T03:39:25.409Z,100.00
2022-10-23T03:42:00.740Z,100.00
2022-10-23T03:44:35.675Z,100.00
2022-10-23T03:47:04.538Z,100.00
2022-10-23T03:49:33.870Z,100.00
2022-10-23T03:52:03.150Z,100.00
2022-10-23T03:54:31.743Z,100.00
2022-10-23T03:57:01.716Z,100.00
2022-10-23T03:59:32.406Z,100.00
2022-10-23T04:02:04.893Z,100.00
2022-10-23T04:11:24.269Z,100.00
2022-10-23T04:14:04.103Z,100.00
2022-10-23T04:16:35.262Z,100.00
2022-10-23T04:19:06.534Z,100.00
2022-10-23T04:21:40.869Z,100.00
2022-10-23T04:24:18.293Z,100.00
2022-10-23T04:27:00.730Z,100.00
2022-10-23T04:29:32.090Z,100.00
2022-10-23T04:32:01.025Z,100.00
2022-10-23T04:34:30.536Z,100.00
2022-10-23T04:36:59.016Z,100.00
2022-10-23T04:39:30.698Z,100.00
2022-10-23T04:42:12.274Z,100.00
2022-10-23T04:44:42.295Z,100.00
2022-10-23T04:47:11.036Z,100.00
2022-10-23T04:49:43.723Z,100.00
2022-10-23T04:52:17.809Z,100.00
2022-10-23T04:54:52.671Z,100.00
2022-10-23T04:57:24.052Z,100.00
2022-10-23T04:59:54.600Z,100.00
2022-10-23T05:02:23.601Z,100.00
2022-10-23T05:04:51.736Z,100.00
2022-10-23T05:07:19.633Z,100.00
2022-10-23T05:09:50.770Z,100.00
2022-10-23T05:12:18.842Z,100.00
2022-10-23T05:14:50.999Z,100.00
2022-10-23T05:17:21.334Z,100.00
2022-10-23T05:19:54.212Z,100.00
2022-10-23T05:22:29.105Z,100.00
2022-10-23T05:24:59.582Z,100.00
2022-10-23T05:27:27.583Z,100.00
2022-10-23T05:30:02.601Z,100.00
2022-10-23T05:32:33.657Z,100.00
2022-10-23T05:35:06.312Z,100.00
2022-10-23T05:37:38.360Z,100.00
2022-10-23T05:40:09.049Z,100.00
2022-10-23T05:42:39.499Z,100.00
2022-10-23T05:45:12.638Z,100.00
2022-10-23T05:47:40.372Z,100.00
2022-10-23T05:50:09.572Z,100.00
2022-10-23T05:52:37.675Z,100.00
2022-10-23T05:55:06.047Z,100.00
2022-10-23T05:57:34.676Z,100.00
2022-10-23T06:00:02.468Z,100.00
2022-10-23T06:02:32.014Z,100.00
2022-10-23T06:04:59.956Z,100.00
2022-10-23T06:07:31.196Z,100.00
2022-10-23T06:10:01.330Z,100.00
2022-10-23T06:12:31.117Z,100.00
2022-10-23T06:14:59.119Z,100.00
2022-10-23T06:17:27.113Z,100.00
2022-10-23T06:20:02.428Z,100.00
2022-10-23T06:22:36.643Z,100.00
2022-10-23T06:25:04.799Z,100.00
2022-10-23T06:27:32.655Z,100.00
2022-10-23T06:30:00.471Z,100.00
2022-10-23T06:32:28.266Z,100.00
2022-10-23T06:34:57.281Z,100.00
2022-10-23T06:37:25.294Z,100.00
2022-10-23T06:39:53.111Z,100.00
2022-10-23T06:42:20.873Z,100.00
2022-10-23T06:44:48.934Z,100.00
2022-10-23T06:49:45.383Z,100.00
2022-10-23T06:52:41.802Z,100.00
2022-10-23T06:55:02.912Z,100.00
2022-10-23T06:57:30.755Z,100.00
2022-10-23T06:59:58.602Z,100.00
2022-10-23T07:02:26.981Z,100.00
2022-10-23T07:04:55.432Z,100.00
2022-10-23T07:07:24.862Z,100.00
2022-10-23T07:09:52.755Z,100.00
2022-10-23T07:12:20.350Z,100.00
2022-10-23T07:14:48.153Z,100.00
2022-10-23T07:17:16.335Z,100.00
2022-10-23T07:19:44.346Z,100.00
2022-10-23T07:22:16.051Z,100.00
2022-10-23T07:24:48.554Z,100.00
2022-10-23T07:27:16.471Z,100.00
2022-10-23T07:29:44.135Z,100.00
2022-10-23T07:32:13.343Z,100.00
2022-10-23T07:34:41.217Z,100.00
2022-10-23T07:37:09.100Z,100.00
2022-10-23T07:39:37.245Z,100.00
2022-10-23T07:42:06.813Z,100.00
2022-10-23T07:44:34.713Z,100.00
2022-10-23T07:47:02.512Z,100.00
2022-10-23T07:49:34.209Z,100.00
2022-10-23T07:52:06.957Z,100.00
2022-10-23T07:54:35.399Z,100.00
2022-10-23T07:57:03.510Z,100.00
2022-10-23T07:59:37.191Z,100.00
2022-10-23T08:02:06.710Z,100.00
2022-10-23T08:04:34.601Z,100.00
2022-10-23T08:07:02.242Z,100.00
2022-10-23T08:09:30.636Z,100.00
2022-10-23T08:11:59.089Z,100.00
2022-10-23T08:14:38.516Z,100.00
2022-10-23T08:17:10.128Z,100.00
2022-10-23T08:19:46.479Z,100.00
2022-10-23T08:22:16.931Z,100.00
2022-10-23T08:24:46.317Z,100.00
2022-10-23T08:27:16.451Z,100.00
2022-10-23T08:29:49.270Z,100.00
2022-10-23T08:32:24.230Z,100.00
2022-10-23T08:34:52.308Z,100.00
2022-10-23T08:37:22.800Z,100.00
2022-10-23T08:39:52.667Z,100.00
2022-10-23T08:42:29.709Z,100.00
2022-10-23T08:45:15.427Z,100.00
2022-10-23T08:47:50.876Z,100.00
2022-10-23T08:53:03.562Z,100.00
2022-10-23T08:55:35.043Z,100.00
2022-10-23T08:58:10.450Z,100.00
2022-10-23T09:00:38.365Z,100.00
2022-10-23T09:03:08.051Z,100.00
2022-10-23T09:05:54.269Z,100.00
2022-10-23T09:08:34.261Z,100.00
2022-10-23T09:11:06.324Z,100.00
2022-10-23T09:13:55.588Z,100.00
2022-10-23T09:16:38.357Z,100.00
2022-10-23T09:19:16.324Z,100.00
2022-10-23T09:21:47.882Z,100.00
2022-10-23T09:24:17.997Z,100.00
2022-10-23T09:26:48.431Z,100.00
2022-10-23T09:29:27.296Z,100.00
2022-10-23T09:31:57.652Z,100.00
2022-10-23T09:34:42.901Z,100.00
2022-10-23T09:37:23.950Z,100.00
2022-10-23T09:40:04.858Z,100.00
2022-10-23T09:42:37.539Z,100.00
2022-10-23T09:45:30.310Z,100.00
2022-10-23T09:48:19.323Z,100.00
2022-10-23T09:50:56.742Z,100.00
2022-10-23T09:53:37.222Z,100.00
2022-10-23T09:56:12.054Z,100.00
2022-10-23T09:58:46.128Z,100.00
2022-10-23T10:01:28.272Z,100.00
2022-10-23T10:03:57.026Z,100.00
2022-10-23T10:06:28.569Z,98.82
2022-10-23T10:09:04.293Z,99.68
2022-10-23T10:11:39.518Z,99.59
2022-10-23T10:14:43.650Z,99.72
2022-10-23T10:17:20.109Z,99.73
2022-10-23T10:20:19.957Z,98.74
2022-10-23T10:22:59.445Z,98.44
2022-10-23T10:25:37.456Z,98.12
2022-10-23T10:28:23.918Z,96.59
2022-10-23T10:31:13.067Z,96.03
2022-10-23T10:33:50.247Z,95.47
2022-10-23T10:36:38.356Z,95.33
2022-10-23T10:39:17.540Z,94.53
2022-10-23T10:41:54.379Z,94.19
2022-10-23T10:44:40.369Z,93.73
2022-10-23T10:47:20.048Z,94.09
2022-10-23T10:50:03.494Z,94.19
2022-10-23T10:52:38.284Z,93.80
2022-10-23T10:55:19.951Z,93.96
2022-10-23T10:57:59.249Z,94.01
2022-10-23T11:00:31.252Z,93.72
2022-10-23T11:03:13.481Z,94.78
2022-10-23T11:05:45.566Z,94.88
2022-10-23T11:08:18.115Z,95.21
2022-10-23T11:10:51.414Z,94.41
2022-10-23T11:13:28.822Z,93.47
2022-10-23T11:16:00.615Z,93.21
2022-10-23T11:18:32.294Z,93.17
2022-10-23T11:21:10.354Z,92.98
2022-10-23T11:24:11.491Z,91.47
2022-10-23T11:26:53.341Z,91.78
2022-10-23T11:30:06.933Z,91.72
2022-10-23T11:32:58.696Z,91.84
2022-10-23T11:35:51.059Z,90.80
2022-10-23T11:38:24.926Z,90.78
2022-10-23T11:40:57.751Z,90.82
2022-10-23T11:43:34.374Z,91.42
2022-10-23T11:46:13.565Z,91.15
2022-10-23T11:48:44.217Z,91.62
2022-10-23T11:51:29.537Z,91.88
2022-10-23T11:54:24.738Z,91.79
2022-10-23T11:56:57.103Z,91.86
2022-10-23T11:59:31.916Z,92.21
2022-10-23T12:02:02.622Z,92.28
2022-10-23T12:04:41.891Z,91.65
2022-10-23T12:07:34.264Z,91.73
2022-10-23T12:10:04.484Z,92.49
2022-10-23T12:12:36.165Z,92.92
2022-10-23T12:15:24.007Z,92.82
2022-10-23T12:17:56.593Z,93.35
2022-10-23T12:20:33.167Z,93.15
2022-10-23T12:23:33.827Z,93.05
2022-10-23T12:26:19.191Z,92.99
2022-10-23T12:28:56.131Z,93.10
2022-10-23T12:31:35.709Z,93.49
2022-10-23T12:34:19.252Z,93.45
2022-10-23T12:37:08.744Z,94.11
2022-10-23T12:39:40.273Z,94.02
2022-10-23T12:42:19.372Z,93.66
2022-10-23T12:44:47.380Z,93.97
2022-10-23T12:47:30.666Z,93.84
2022-10-23T12:49:58.770Z,94.47
2022-10-23T12:52:39.691Z,93.80
2022-10-23T12:55:14.816Z,93.83
2022-10-23T12:57:44.643Z,93.73
2022-10-23T13:00:20.788Z,93.05
2022-10-23T13:03:00.119Z,92.66
2022-10-23T13:05:29.137Z,93.21
2022-10-23T13:08:15.035Z,93.22
2022-10-23T13:10:43.486Z,93.40
2022-10-23T13:13:24.146Z,93.04
2022-10-23T13:15:54.208Z,93.23
2022-10-23T13:18:51.212Z,93.32
2022-10-23T13:21:28.825Z,93.33
2022-10-23T13:24:01.735Z,93.59
2022-10-23T13:26:35.198Z,92.87
2022-10-23T13:29:07.326Z,92.68
2022-10-23T13:31:42.259Z,92.46
2022-10-23T13:34:28.734Z,92.53
2022-10-23T13:37:05.450Z,92.84
2022-10-23T13:39:37.308Z,92.44
2022-10-23T13:42:14.704Z,91.76
2022-10-23T13:44:51.631Z,91.39
2022-10-23T13:47:24.756Z,91.84
2022-10-23T13:49:56.543Z,91.00
2022-10-23T13:52:40.210Z,91.06
2022-10-23T13:55:22.081Z,90.76
2022-10-23T13:57:50.489Z,91.26
2022-10-23T14:00:19.751Z,91.37
2022-10-23T14:05:24.217Z,92.85
2022-10-23T14:07:51.914Z,93.34
2022-10-23T14:10:25.640Z,92.96
2022-10-23T14:12:55.389Z,93.06
2022-10-23T14:15:23.315Z,93.71
2022-10-23T14:17:59.034Z,93.97
2022-10-23T14:20:30.251Z,94.07
2022-10-23T14:22:58.206Z,94.27
2022-10-23T14:25:26.315Z,94.81
2022-10-23T14:30:25.824Z,95.58
2022-10-23T14:32:56.469Z,95.61
2022-10-23T14:35:25.731Z,96.30
2022-10-23T14:37:54.795Z,96.45
2022-10-23T14:40:22.769Z,96.75
2022-10-23T14:42:50.574Z,96.61
2022-10-23T14:45:18.506Z,96.88
2022-10-23T14:47:46.521Z,97.67
2022-10-23T14:50:15.443Z,97.63
2022-10-23T14:52:51.964Z,97.12
2022-10-23T14:55:21.544Z,97.20
2022-10-23T14:57:52.209Z,97.36
2022-10-23T15:00:25.235Z,97.87
2022-10-23T15:02:53.386Z,97.50
2022-10-23T15:05:21.373Z,98.23
2022-10-23T15:07:52.808Z,98.55
2022-10-23T15:10:22.249Z,98.11
2022-10-23T15:12:50.173Z,98.61
2022-10-23T15:15:18.767Z,98.71
2022-10-23T15:17:46.748Z,98.96
2022-10-23T15:20:14.468Z,99.65
2022-10-23T15:22:46.564Z,99.53
2022-10-23T15:25:17.913Z,100.00
2022-10-23T15:27:51.409Z,100.00
2022-10-23T15:30:19.379Z,100.00
2022-10-23T15:32:50.754Z,100.00
2022-10-23T15:35:18.398Z,100.00
2022-10-23T15:37:47.027Z,100.00
2022-10-23T15:40:15.573Z,100.00
2022-10-23T15:42:43.763Z,100.00
2022-10-23T15:45:16.376Z,100.00
2022-10-23T15:47:44.649Z,100.00
2022-10-23T15:50:12.640Z,100.00
2022-10-23T15:52:40.578Z,100.00
2022-10-23T15:55:11.593Z,100.00
2022-10-23T15:57:42.626Z,100.00
2022-10-23T16:00:18.151Z,100.00
2022-10-23T16:02:47.822Z,100.00
2022-10-23T16:05:17.405Z,100.00
2022-10-23T16:07:45.262Z,100.00
2022-10-23T16:10:13.739Z,100.00
2022-10-23T16:12:41.755Z,100.00
2022-10-23T16:15:13.407Z,100.00
2022-10-23T16:17:43.414Z,100.00
2022-10-23T16:20:12.174Z,100.00
2022-10-23T16:22:42.706Z,100.00
2022-10-23T16:25:13.127Z,100.00
2022-10-23T16:27:43.678Z,100.00
2022-10-23T16:30:14.385Z,100.00
2022-10-23T16:32:43.816Z,100.00
2022-10-23T16:35:13.096Z,100.00
2022-10-23T16:37:45.198Z,100.00
2022-10-23T16:40:13.206Z,100.00
2022-10-23T16:42:41.720Z,100.00
2022-10-23T16:45:10.563Z,100.00
2022-10-23T16:47:38.400Z,100.00
2022-10-23T16:50:08.477Z,100.00
2022-10-23T16:52:36.653Z,100.00
2022-10-23T16:55:05.035Z,100.00
2022-10-23T16:57:33.234Z,100.00
2022-10-23T17:00:00.934Z,100.00
2022-10-23T17:02:28.749Z,100.00
2022-10-23T17:05:02.247Z,100.00
2022-10-23T17:07:33.224Z,100.00
2022-10-23T17:10:01.165Z,100.00
2022-10-23T17:12:28.960Z,100.00
2022-10-23T17:14:56.967Z,100.00
2022-10-23T17:17:24.749Z,100.00
2022-10-23T17:19:52.513Z,100.00
2022-10-23T17:22:20.385Z,100.00
2022-10-23T17:24:51.628Z,100.00
2022-10-23T17:27:21.996Z,100.00
2022-10-23T17:29:49.668Z,100.00
2022-10-23T17:32:17.471Z,100.00
2022-10-23T17:34:47.402Z,100.00
2022-10-23T17:37:15.296Z,100.00
2022-10-23T17:39:43.431Z,100.00
2022-10-23T17:42:18.000Z,100.00
2022-10-23T17:44:45.824Z,100.00
2022-10-23T17:47:13.539Z,100.00
2022-10-23T17:49:42.903Z,100.00
2022-10-23T17:52:14.971Z,100.00
2022-10-23T17:54:46.683Z,100.00
2022-10-23T17:57:17.470Z,100.00
2022-10-23T17:59:47.774Z,100.00
2022-10-23T18:02:16.066Z,100.00
2022-10-23T18:04:43.842Z,100.00
2022-10-23T18:07:14.680Z,100.00
2022-10-23T18:09:42.589Z,100.00
2022-10-23T18:12:13.464Z,100.00
2022-10-23T18:14:48.694Z,100.00
2022-10-23T18:17:18.176Z,100.00
2022-10-23T18:19:46.138Z,100.00
2022-10-23T18:22:14.689Z,100.00
2022-10-23T18:24:47.392Z,100.00
2022-10-23T18:27:15.348Z,100.00
2022-10-23T18:29:44.946Z,100.00
2022-10-23T18:32:12.858Z,100.00
2022-10-23T18:34:41.956Z,100.00
2022-10-23T18:37:10.829Z,100.00
2022-10-23T18:39:43.694Z,100.00
2022-10-23T18:42:11.837Z,100.00
2022-10-23T18:44:39.950Z,100.00
2022-10-23T18:47:09.446Z,100.00
2022-10-23T18:49:37.328Z,100.00
2022-10-23T18:52:07.565Z,100.00
2022-10-23T18:54:35.754Z,100.00
2022-10-23T18:57:03.691Z,100.00
2022-10-23T18:59:31.665Z,100.00
2022-10-23T19:01:59.768Z,100.00
2022-10-23T19:04:32.779Z,100.00
2022-10-23T19:07:03.458Z,100.00
2022-10-23T19:09:31.182Z,100.00
2022-10-23T19:12:02.594Z,100.00
2022-10-23T19:14:33.614Z,100.00
2022-10-23T19:17:05.427Z,100.00
2022-10-23T19:19:37.397Z,100.00
2022-10-23T19:22:06.429Z,100.00
2022-10-23T19:24:41.064Z,100.00
2022-10-23T19:27:11.852Z,100.00
2022-10-23T19:29:44.472Z,100.00
2022-10-23T19:32:12.776Z,100.00
2022-10-23T19:34:42.410Z,100.00
2022-10-23T19:37:10.540Z,100.00
2022-10-23T19:39:38.519Z,100.00
2022-10-23T19:42:08.657Z,100.00
2022-10-23T19:44:36.828Z,100.00
2022-10-23T19:47:04.678Z,100.00
2022-10-23T19:49:32.754Z,100.00
2022-10-23T19:52:04.670Z,100.00
2022-10-23T19:54:33.738Z,100.00
2022-10-23T19:57:02.598Z,100.00
2022-10-23T19:59:30.478Z,100.00
2022-10-23T20:02:05.268Z,100.00
2022-10-23T20:04:37.230Z,100.00
2022-10-23T20:07:10.334Z,100.00
2022-10-23T20:09:39.562Z,100.00
2022-10-23T20:12:09.130Z,100.00
2022-10-23T20:14:37.042Z,100.00
2022-10-23T20:17:08.846Z,100.00
2022-10-23T20:19:36.561Z,100.00
2022-10-23T20:22:05.569Z,100.00
2022-10-23T20:24:38.071Z,100.00
2022-10-23T20:27:06.125Z,100.00
2022-10-23T20:29:33.939Z,100.00
2022-10-23T20:32:01.760Z,100.00
2022-10-23T20:34:30.021Z,100.00
2022-10-23T20:36:57.944Z,100.00
2022-10-23T20:39:27.155Z,100.00
2022-10-23T20:42:00.407Z,100.00
2022-10-23T20:44:31.000Z,100.00
2022-10-23T20:47:01.574Z,100.00
2022-10-23T20:49:33.600Z,100.00
2022-10-23T20:52:03.184Z,100.00
2022-10-23T20:54:31.871Z,100.00
2022-10-23T20:57:01.657Z,100.00
2022-10-23T20:59:29.666Z,100.00
2022-10-23T21:01:58.233Z,100.00
2022-10-23T21:04:27.688Z,100.00
2022-10-23T21:07:15.087Z,100.00
2022-10-23T21:09:43.288Z,100.00
2022-10-23T21:12:12.659Z,100.00
2022-10-23T21:14:40.595Z,100.00
2022-10-23T21:17:10.913Z,100.00
2022-10-23T21:19:40.142Z,100.00
2022-10-23T21:22:07.765Z,100.00
2022-10-23T21:24:35.652Z,100.00
2022-10-23T21:27:03.461Z,100.00
2022-10-23T21:29:32.725Z,100.00
2022-10-23T21:32:02.319Z,100.00
2022-10-23T21:34:30.370Z,100.00
2022-10-23T21:37:14.833Z,100.00
2022-10-23T21:39:43.225Z,100.00
2022-10-23T21:42:11.554Z,100.00
2022-10-23T21:44:43.559Z,100.00
2022-10-23T21:47:12.082Z,100.00
2022-10-23T21:49:39.696Z,100.00
2022-10-23T21:52:09.156Z,100.00
2022-10-23T21:54:36.856Z,100.00
2022-10-23T21:57:04.805Z,100.00
2022-10-23T21:59:36.041Z,100.00
2022-10-23T22:02:08.454Z,100.00
2022-10-23T22:04:36.828Z,100.00
2022-10-23T22:07:05.897Z,100.00
2022-10-23T22:09:34.535Z,100.00
2022-10-23T22:12:02.723Z,100.00
2022-10-23T22:14:30.481Z,100.00
2022-10-23T22:16:58.036Z,100.00
2022-10-23T22:19:27.169Z,100.00
2022-10-23T22:21:55.274Z,100.00
2022-10-23T22:24:25.851Z,100.00
2022-10-23T22:26:56.245Z,100.00
2022-10-23T22:29:26.746Z,100.00
2022-10-23T22:31:56.090Z,100.00
2022-10-23T22:34:51.384Z,100.00
2022-10-23T22:37:16.824Z,100.00
2022-10-23T22:39:44.509Z,100.00
2022-10-23T22:42:12.277Z,100.00
2022-10-23T22:44:40.683Z,100.00
2022-10-23T22:47:09.004Z,100.00
2022-10-23T22:49:37.082Z,100.00
2022-10-23T22:52:05.098Z,100.00
2022-10-23T22:54:34.797Z,100.00
2022-10-23T22:57:03.567Z,100.00
2022-10-23T22:59:31.412Z,100.00
2022-10-23T23:01:59.276Z,100.00
2022-10-23T23:04:43.100Z,100.00
2022-10-23T23:07:13.596Z,100.00
2022-10-23T23:09:44.513Z,100.00
2022-10-23T23:12:15.062Z,100.00
2022-10-23T23:14:43.962Z,100.00
2022-10-23T23:17:12.023Z,100.00
2022-10-23T23:19:40.036Z,100.00
2022-10-23T23:22:07.812Z,100.00
2022-10-23T23:24:35.590Z,100.00
2022-10-23T23:27:04.886Z,100.00
2022-10-23T23:29:32.556Z,100.00
2022-10-23T23:32:00.189Z,100.00
2022-10-23T23:34:27.915Z,100.00
2022-10-23T23:36:56.161Z,100.00
2022-10-23T23:39:23.780Z,100.00
2022-10-23T23:41:51.402Z,100.00
2022-10-23T23:44:20.416Z,100.00
2022-10-23T23:46:47.956Z,100.00
2022-10-23T23:49:15.730Z,100.00
2022-10-23T23:51:43.344Z,100.00
2022-10-23T23:54:11.107Z,100.00
2022-10-23T23:56:39.078Z,100.00
2022-10-23T23:59:06.835Z,100.00
